createdAt,value
2017-11-10T00:02:05.175Z,99519
2017-11-10T00:04:14.254Z,99510
2017-11-10T00:06:20.985Z,99520
2017-11-10T00:08:26.861Z,99515
2017-11-10T00:10:33.275Z,99516
2017-11-10T00:12:41.159Z,99518
2017-11-10T00:14:47.134Z,99515
2017-11-10T00:16:54.068Z,99516
2017-11-10T00:19:02.907Z,99510
2017-11-10T00:21:08.635Z,99516
2017-11-10T00:23:23.820Z,99516
2017-11-10T00:25:31.463Z,99509
2017-11-10T00:27:39.719Z,99511
2017-11-10T00:29:48.354Z,99503
2017-11-10T00:31:55.163Z,99497
2017-11-10T00:34:04.593Z,99505
2017-11-10T00:36:15.508Z,99503
2017-11-10T00:38:21.706Z,99503
2017-11-10T00:40:28.886Z,99505
2017-11-10T00:42:40.070Z,99502
2017-11-10T00:44:46.576Z,99504
2017-11-10T00:46:52.934Z,99495
2017-11-10T00:49:00.423Z,99496
2017-11-10T00:51:06.805Z,99505
2017-11-10T00:53:14.189Z,99509
2017-11-10T00:55:20.115Z,99504
2017-11-10T00:57:26.104Z,99501
2017-11-10T00:59:32.070Z,99497
2017-11-10T01:01:41.956Z,99503
2017-11-10T01:03:48.172Z,99508
2017-11-10T01:05:54.619Z,99513
2017-11-10T01:08:14.215Z,99515
2017-11-10T01:10:20.134Z,99521
2017-11-10T01:12:26.695Z,99516
2017-11-10T01:14:32.435Z,99516
2017-11-10T01:16:38.382Z,99510
2017-11-10T01:18:44.203Z,99507
2017-11-10T01:20:50.729Z,99501
2017-11-10T01:22:57.402Z,99490
2017-11-10T01:25:08.119Z,99491
2017-11-10T01:27:15.635Z,99490
2017-11-10T01:29:21.592Z,99492
2017-11-10T01:31:27.353Z,99490
2017-11-10T01:33:33.049Z,99488
2017-11-10T01:35:39.849Z,99486
2017-11-10T01:37:47.363Z,99482
2017-11-10T01:39:53.926Z,99486
2017-11-10T01:42:00.781Z,99477
2017-11-10T01:44:14.768Z,99477
2017-11-10T01:46:20.558Z,99477
2017-11-10T01:48:52.160Z,99473
2017-11-10T01:51:01.125Z,99476
2017-11-10T01:53:16.673Z,99471
2017-11-10T01:55:22.530Z,99466
2017-11-10T01:57:29.285Z,99478
2017-11-10T01:59:35.438Z,99471
2017-11-10T02:01:42.706Z,99469
2017-11-10T02:03:48.874Z,99469
2017-11-10T02:05:55.358Z,99471
2017-11-10T02:08:03.688Z,99470
2017-11-10T02:10:11.693Z,99462
2017-11-10T02:12:19.219Z,99462
2017-11-10T02:14:27.908Z,99457
2017-11-10T02:16:33.709Z,99451
2017-11-10T02:18:39.536Z,99445
2017-11-10T02:20:46.736Z,99443
2017-11-10T02:22:53.314Z,99439
2017-11-10T02:25:05.965Z,99441
2017-11-10T02:27:15.745Z,99421
2017-11-10T02:29:25.771Z,99414
2017-11-10T02:31:35.974Z,99413
2017-11-10T02:33:41.692Z,99413
2017-11-10T02:35:50.287Z,99408
2017-11-10T02:37:59.514Z,99397
2017-11-10T02:40:09.742Z,99398
2017-11-10T02:42:20.047Z,99391
2017-11-10T02:44:26.340Z,99385
2017-11-10T02:46:33.116Z,99379
2017-11-10T02:48:40.821Z,99376
2017-11-10T02:50:48.475Z,99373
2017-11-10T02:52:55.359Z,99372
2017-11-10T02:55:05.106Z,99376
2017-11-10T02:57:29.476Z,99375
2017-11-10T02:59:42.847Z,99368
2017-11-10T03:02:05.043Z,99361
2017-11-10T03:04:17.998Z,99358
2017-11-10T03:06:23.611Z,99355
2017-11-10T03:08:29.405Z,99356
2017-11-10T03:13:21.512Z,99336
2017-11-10T03:15:27.736Z,99338
2017-11-10T03:17:34.658Z,99332
2017-11-10T03:19:41.270Z,99332
2017-11-10T03:21:48.780Z,99321
2017-11-10T03:24:00.878Z,99314
2017-11-10T03:26:13.863Z,99315
2017-11-10T03:28:20.156Z,99326
2017-11-10T03:30:27.538Z,99321
2017-11-10T03:32:34.148Z,99317
2017-11-10T03:34:41.836Z,99324
2017-11-10T03:36:51.986Z,99332
2017-11-10T03:39:00.259Z,99329
2017-11-10T03:41:09.464Z,99327
2017-11-10T03:43:19.035Z,99325
2017-11-10T03:45:25.470Z,99320
2017-11-10T03:47:33.128Z,99315
2017-11-10T03:49:39.528Z,99312
2017-11-10T03:51:48.427Z,99311
2017-11-10T03:53:55.778Z,99306
2017-11-10T03:56:01.494Z,99303
2017-11-10T03:58:10.810Z,99293
2017-11-10T04:00:22.359Z,99283
2017-11-10T04:02:30.954Z,99291
2017-11-10T04:04:42.012Z,99277
2017-11-10T04:06:54.007Z,99268
2017-11-10T04:08:59.587Z,99264
2017-11-10T04:11:13.923Z,99254
2017-11-10T04:13:21.020Z,99259
2017-11-10T04:15:32.013Z,99256
2017-11-10T04:17:39.824Z,99264
2017-11-10T04:19:48.708Z,99271
2017-11-10T04:21:54.786Z,99280
2017-11-10T04:24:03.468Z,99287
2017-11-10T04:26:09.281Z,99282
2017-11-10T04:28:18.872Z,99278
2017-11-10T04:30:24.727Z,99290
2017-11-10T04:32:30.881Z,99288
2017-11-10T04:34:41.713Z,99296
2017-11-10T04:36:47.855Z,99303
2017-11-10T04:38:54.213Z,99281
2017-11-10T04:41:00.263Z,99275
2017-11-10T04:43:06.636Z,99275
2017-11-10T04:45:14.141Z,99274
2017-11-10T04:47:20.053Z,99269
2017-11-10T04:49:25.710Z,99262
2017-11-10T04:51:31.185Z,99250
2017-11-10T04:53:36.753Z,99254
2017-11-10T04:55:42.535Z,99250
2017-11-10T04:57:48.518Z,99243
2017-11-10T04:59:54.558Z,99248
2017-11-10T05:02:02.383Z,99247
2017-11-10T05:04:09.489Z,99236
2017-11-10T05:06:16.947Z,99238
2017-11-10T05:08:22.548Z,99243
2017-11-10T05:10:28.117Z,99243
2017-11-10T05:12:33.648Z,99243
2017-11-10T05:14:39.173Z,99240
2017-11-10T05:16:44.723Z,99246
2017-11-10T05:18:51.322Z,99241
2017-11-10T05:20:57.150Z,99240
2017-11-10T05:23:04.955Z,99241
2017-11-10T05:25:12.410Z,99230
2017-11-10T05:27:18.981Z,99225
2017-11-10T05:29:24.697Z,99235
2017-11-10T05:31:30.577Z,99229
2017-11-10T05:33:36.436Z,99223
2017-11-10T05:35:42.283Z,99217
2017-11-10T05:37:48.413Z,99205
2017-11-10T05:39:54.786Z,99203
2017-11-10T05:42:06.823Z,99211
2017-11-10T05:44:15.543Z,99216
2017-11-10T05:46:30.372Z,99215
2017-11-10T05:48:36.404Z,99207
2017-11-10T05:50:42.943Z,99209
2017-11-10T05:52:49.868Z,99219
2017-11-10T05:54:57.765Z,99216
2017-11-10T05:57:04.125Z,99215
2017-11-10T05:59:13.914Z,99215
2017-11-10T06:01:19.786Z,99216
2017-11-10T06:03:26.494Z,99208
2017-11-10T06:05:33.336Z,99210
2017-11-10T06:07:40.260Z,99216
2017-11-10T06:09:48.259Z,99219
2017-11-10T06:11:55.257Z,99219
2017-11-10T06:14:03.130Z,99219
2017-11-10T06:16:12.649Z,99215
2017-11-10T06:18:24.547Z,99212
2017-11-10T06:20:42.726Z,99210
2017-11-10T06:22:53.382Z,99206
2017-11-10T06:25:00.395Z,99208
2017-11-10T06:27:08.877Z,99209
2017-11-10T06:29:23.949Z,99206
2017-11-10T06:31:30.455Z,99209
2017-11-10T06:33:38.497Z,99204
2017-11-10T06:35:45.376Z,99205
2017-11-10T06:37:53.014Z,99198
2017-11-10T06:40:00.260Z,99197
2017-11-10T06:42:07.591Z,99190
2017-11-10T06:44:16.701Z,99189
2017-11-10T06:46:24.323Z,99191
2017-11-10T06:48:29.806Z,99198
2017-11-10T06:50:35.896Z,99202
2017-11-10T06:52:43.254Z,99201
2017-11-10T06:54:49.246Z,99196
2017-11-10T06:56:55.522Z,99194
2017-11-10T06:59:04.872Z,99196
2017-11-10T07:01:11.125Z,99184
2017-11-10T07:03:21.872Z,99191
2017-11-10T07:05:27.720Z,99187
2017-11-10T07:07:33.127Z,99180
2017-11-10T07:09:39.072Z,99177
2017-11-10T07:11:45.045Z,99177
2017-11-10T07:13:52.525Z,99177
2017-11-10T07:16:18.267Z,99171
2017-11-10T07:18:25.760Z,99167
2017-11-10T07:20:31.864Z,99174
2017-11-10T07:22:37.597Z,99173
2017-11-10T07:24:48.163Z,99171
2017-11-10T07:26:54.384Z,99167
2017-11-10T07:29:02.293Z,99171
2017-11-10T07:31:08.485Z,99171
2017-11-10T07:33:17.704Z,99175
2017-11-10T07:35:23.366Z,99171
2017-11-10T07:37:29.776Z,99160
2017-11-10T07:39:35.427Z,99161
2017-11-10T07:41:41.417Z,99166
2017-11-10T07:43:47.919Z,99175
2017-11-10T07:45:54.223Z,99173
2017-11-10T07:48:04.390Z,99168
2017-11-10T07:50:10.109Z,99164
2017-11-10T07:52:19.638Z,99168
2017-11-10T07:54:25.417Z,99161
2017-11-10T07:56:32.659Z,99164
2017-11-10T07:58:38.318Z,99149
2017-11-10T08:00:44.312Z,99152
2017-11-10T08:02:50.674Z,99155
2017-11-10T08:04:57.421Z,99155
2017-11-10T08:07:05.740Z,99162
2017-11-10T08:09:14.429Z,99157
2017-11-10T08:11:20.000Z,99154
2017-11-10T08:13:27.262Z,99144
2017-11-10T08:15:32.543Z,99155
2017-11-10T08:17:38.160Z,99150
2017-11-10T08:19:44.254Z,99148
2017-11-10T08:21:51.663Z,99146
2017-11-10T08:24:01.017Z,99142
2017-11-10T08:26:14.646Z,99148
2017-11-10T08:28:22.224Z,99137
2017-11-10T08:32:50.025Z,99135
2017-11-10T08:35:04.703Z,99130
2017-11-10T08:37:14.280Z,99120
2017-11-10T08:39:19.809Z,99120
2017-11-10T08:41:26.794Z,99117
2017-11-10T08:43:33.958Z,99117
2017-11-10T08:45:39.577Z,99111
2017-11-10T08:47:45.814Z,99114
2017-11-10T08:49:52.363Z,99116
2017-11-10T08:51:59.639Z,99100
2017-11-10T08:54:09.016Z,99098
2017-11-10T08:56:16.869Z,99091
2017-11-10T08:58:23.377Z,99082
2017-11-10T09:00:31.984Z,99073
2017-11-10T09:02:38.756Z,99073
2017-11-10T09:04:44.473Z,99058
2017-11-10T09:06:51.807Z,99064
2017-11-10T09:08:58.185Z,99054
2017-11-10T09:11:04.045Z,99048
2017-11-10T09:13:09.546Z,99036
2017-11-10T09:15:18.517Z,99036
2017-11-10T09:17:36.846Z,99019
2017-11-10T09:19:43.448Z,99024
2017-11-10T09:21:53.819Z,99007
2017-11-10T09:26:57.488Z,99006
2017-11-10T09:29:14.593Z,99006
2017-11-10T09:31:20.538Z,99010
2017-11-10T09:33:27.051Z,99003
2017-11-10T09:35:33.460Z,98995
2017-11-10T09:37:39.748Z,99001
2017-11-10T09:39:45.979Z,98995
2017-11-10T09:41:57.244Z,98987
2017-11-10T09:44:04.156Z,98975
2017-11-10T09:46:13.067Z,98977
2017-11-10T09:48:23.046Z,98968
2017-11-10T09:50:33.179Z,98964
2017-11-10T09:52:39.376Z,98966
2017-11-10T09:54:46.313Z,98964
2017-11-10T09:56:52.414Z,98945
2017-11-10T09:59:04.012Z,98934
2017-11-10T10:01:09.974Z,98933
2017-11-10T10:03:18.674Z,98927
2017-11-10T10:05:24.985Z,98923
2017-11-10T10:07:33.081Z,98914
2017-11-10T10:09:39.563Z,98925
2017-11-10T10:11:46.544Z,98910
2017-11-10T10:13:53.590Z,98920
2017-11-10T10:16:00.407Z,98911
2017-11-10T10:18:07.846Z,98911
2017-11-10T10:20:17.899Z,98908
2017-11-10T10:22:24.170Z,98912
2017-11-10T10:24:30.232Z,98899
2017-11-10T10:26:36.022Z,98898
2017-11-10T10:28:41.716Z,98890
2017-11-10T10:30:48.240Z,98885
2017-11-10T10:32:54.639Z,98881
2017-11-10T10:35:03.197Z,98870
2017-11-10T10:37:09.196Z,98866
2017-11-10T10:39:18.862Z,98859
2017-11-10T10:41:24.497Z,98856
2017-11-10T10:43:30.454Z,98847
2017-11-10T10:45:36.254Z,98843
2017-11-10T10:47:42.011Z,98842
2017-11-10T10:49:49.049Z,98832
2017-11-10T10:51:55.450Z,98831
2017-11-10T10:54:18.836Z,98811
2017-11-10T10:56:25.436Z,98808
2017-11-10T10:58:34.159Z,98806
2017-11-10T11:00:43.123Z,98797
2017-11-10T11:02:58.922Z,98792
2017-11-10T11:05:14.249Z,98796
2017-11-10T11:07:23.491Z,98798
2017-11-10T11:09:35.173Z,98799
2017-11-10T11:11:51.192Z,98802
2017-11-10T11:13:59.768Z,98803
2017-11-10T11:16:07.269Z,98812
2017-11-10T11:18:22.135Z,98809
2017-11-10T11:20:31.634Z,98797
2017-11-10T11:22:41.119Z,98796
2017-11-10T11:24:55.738Z,98788
2017-11-10T11:27:04.478Z,98780
2017-11-10T11:31:29.328Z,98757
2017-11-10T11:33:46.992Z,98758
2017-11-10T11:35:54.929Z,98765
2017-11-10T11:38:17.921Z,98749
2017-11-10T11:40:29.356Z,98739
2017-11-10T11:42:46.450Z,98727
2017-11-10T11:45:09.823Z,98771
2017-11-10T11:47:19.890Z,98724
2017-11-10T11:49:26.374Z,98732
2017-11-10T11:51:32.054Z,98735
2017-11-10T11:54:01.893Z,98804
2017-11-10T11:56:23.697Z,98764
2017-11-10T11:58:30.928Z,98767
2017-11-10T12:00:44.836Z,98760
2017-11-10T12:02:52.616Z,98755
2017-11-10T12:04:58.729Z,98769
2017-11-10T12:07:04.466Z,98754
2017-11-10T12:09:10.120Z,98789
2017-11-10T12:11:17.785Z,98751
2017-11-10T12:13:23.745Z,98742
2017-11-10T12:15:30.105Z,98764
2017-11-10T12:17:36.449Z,98755
2017-11-10T12:19:43.119Z,98748
2017-11-10T12:21:49.787Z,98744
2017-11-10T12:23:56.245Z,98747
2017-11-10T12:26:04.277Z,98749
2017-11-10T12:28:14.486Z,98784
2017-11-10T12:30:22.892Z,98728
2017-11-10T12:32:30.872Z,98702
2017-11-10T12:34:36.915Z,98703
2017-11-10T12:36:43.401Z,98697
2017-11-10T12:38:50.264Z,98693
2017-11-10T12:40:56.761Z,98692
2017-11-10T12:43:05.841Z,98705
2017-11-10T12:45:17.675Z,98680
2017-11-10T12:47:23.499Z,98672
2017-11-10T12:49:29.415Z,98670
2017-11-10T13:03:33.278Z,98688
2017-11-10T13:05:39.195Z,98672
2017-11-10T13:07:45.614Z,98729
2017-11-10T13:09:50.925Z,98686
2017-11-10T13:11:56.775Z,98676
2017-11-10T13:14:04.647Z,98683
2017-11-10T13:16:13.551Z,98684
2017-11-10T13:18:21.028Z,98676
2017-11-10T13:20:27.687Z,98682
2017-11-10T13:22:34.320Z,98672
2017-11-10T13:24:40.760Z,98687
2017-11-10T13:26:47.306Z,98654
2017-11-10T13:28:54.060Z,98650
2017-11-10T13:31:01.432Z,98652
2017-11-10T13:33:08.970Z,98645
2017-11-10T13:35:18.455Z,98660
2017-11-10T13:37:25.075Z,98666
2017-11-10T13:39:32.137Z,98644
2017-11-10T13:41:38.212Z,98631
2017-11-10T13:43:49.207Z,98638
2017-11-10T13:46:04.953Z,98639
2017-11-10T13:48:13.111Z,98635
2017-11-10T13:52:38.902Z,98606
2017-11-10T13:54:47.374Z,98597
2017-11-10T13:56:55.923Z,98585
2017-11-10T13:59:07.329Z,98626
2017-11-10T14:01:27.535Z,98593
2017-11-10T14:03:34.125Z,98576
2017-11-10T14:05:41.439Z,98568
2017-11-10T14:07:49.472Z,98569
2017-11-10T14:09:57.276Z,98592
2017-11-10T14:12:05.748Z,98579
2017-11-10T14:14:15.152Z,98583
2017-11-10T14:16:27.926Z,98604
2017-11-10T14:18:41.856Z,98594
2017-11-10T14:20:53.134Z,98590
2017-11-10T14:23:03.693Z,98559
2017-11-10T14:25:15.782Z,98558
2017-11-10T14:27:22.710Z,98562
2017-11-10T14:29:30.591Z,98586
2017-11-10T14:31:36.862Z,98568
2017-11-10T14:33:43.286Z,98564
2017-11-10T14:35:54.983Z,98560
2017-11-10T14:38:00.869Z,98569
2017-11-10T14:40:08.059Z,98567
2017-11-10T14:42:18.836Z,98563
2017-11-10T14:44:27.842Z,98549
2017-11-10T14:46:35.649Z,98559
2017-11-10T14:48:43.011Z,98537
2017-11-10T14:50:51.100Z,98531
2017-11-10T14:52:57.072Z,98533
2017-11-10T14:55:04.336Z,98567
2017-11-10T14:57:32.206Z,98613
2017-11-10T14:59:38.267Z,98525
2017-11-10T15:01:48.153Z,98577
2017-11-10T15:03:55.770Z,98532
2017-11-10T15:06:09.234Z,98605
2017-11-10T15:08:17.252Z,98542
2017-11-10T15:10:25.120Z,98566
2017-11-10T15:12:31.310Z,98541
2017-11-10T15:14:38.466Z,98518
2017-11-10T15:16:45.557Z,98523
2017-11-10T15:18:54.664Z,98504
2017-11-10T15:21:06.233Z,98510
2017-11-10T15:23:16.015Z,98533
2017-11-10T15:25:22.737Z,98496
2017-11-10T15:27:28.453Z,98520
2017-11-10T15:29:35.002Z,98523
2017-11-10T15:31:40.895Z,98519
2017-11-10T15:33:47.739Z,98514
2017-11-10T15:35:54.045Z,98489
2017-11-10T15:38:03.411Z,98483
2017-11-10T15:40:14.806Z,98490
2017-11-10T15:42:21.707Z,98477
2017-11-10T15:44:27.729Z,98505
2017-11-10T15:46:33.639Z,98501
2017-11-10T15:48:39.446Z,98504
2017-11-10T15:50:46.072Z,98469
2017-11-10T15:52:54.967Z,98521
2017-11-10T15:55:05.630Z,98494
2017-11-10T15:57:16.262Z,98469
2017-11-10T15:59:33.204Z,98528
2017-11-10T16:01:40.246Z,98520
2017-11-10T16:03:47.354Z,98529
2017-11-10T16:05:54.417Z,98515
2017-11-10T16:08:09.217Z,98485
2017-11-10T16:10:20.210Z,98502
2017-11-10T16:12:26.260Z,98508
2017-11-10T16:14:40.506Z,98514
2017-11-10T16:16:47.367Z,98518
2017-11-10T16:18:54.707Z,98532
2017-11-10T16:21:08.115Z,98489
2017-11-10T16:23:16.715Z,98506
2017-11-10T16:27:52.692Z,98511
2017-11-10T16:30:02.838Z,98514
2017-11-10T16:32:09.896Z,98487
2017-11-10T16:34:20.788Z,98471
2017-11-10T16:39:24.812Z,98492
2017-11-10T16:41:34.515Z,98475
2017-11-10T16:43:53.296Z,98480
2017-11-10T16:46:04.289Z,98459
2017-11-10T16:48:27.544Z,98458
2017-11-10T16:50:33.826Z,98458
2017-11-10T16:52:39.886Z,98467
2017-11-10T16:54:47.611Z,98450
2017-11-10T16:56:54.372Z,98491
2017-11-10T16:59:05.158Z,98460
2017-11-10T17:01:20.316Z,98478
2017-11-10T17:03:31.678Z,98494
2017-11-10T17:05:41.512Z,98479
2017-11-10T17:07:53.288Z,98471
2017-11-10T17:10:02.117Z,98460
2017-11-10T17:12:16.870Z,98505
2017-11-10T17:14:28.052Z,98490
2017-11-10T17:16:37.262Z,98548
2017-11-10T17:18:45.623Z,98488
2017-11-10T17:20:54.629Z,98514
2017-11-10T17:23:04.897Z,98509
2017-11-10T17:25:20.605Z,98490
2017-11-10T17:27:26.963Z,98496
2017-11-10T17:29:32.730Z,98512
2017-11-10T17:31:42.248Z,98519
2017-11-10T17:33:49.390Z,98537
2017-11-10T17:35:57.510Z,98521
2017-11-10T17:38:08.368Z,98526
2017-11-10T17:40:20.980Z,98549
2017-11-10T17:42:32.005Z,98551
2017-11-10T17:44:43.802Z,98570
2017-11-10T17:46:49.721Z,98573
2017-11-10T17:48:57.227Z,98608
2017-11-10T17:53:27.920Z,98626
2017-11-10T17:55:34.264Z,98648
2017-11-10T17:57:45.448Z,98655
2017-11-10T17:59:53.572Z,98716
2017-11-10T18:02:03.605Z,98670
2017-11-10T18:04:21.872Z,98647
2017-11-10T18:06:27.807Z,98627
2017-11-10T18:08:34.799Z,98621
2017-11-10T18:10:42.443Z,98633
2017-11-10T18:12:50.651Z,98648
2017-11-10T18:15:00.701Z,98636
2017-11-10T18:17:08.388Z,98658
2017-11-10T18:19:17.429Z,98634
2017-11-10T18:21:25.359Z,98653
2017-11-10T18:23:43.812Z,98662
2017-11-10T18:25:50.871Z,98645
2017-11-10T18:28:04.504Z,98654
2017-11-10T18:30:18.883Z,98664
2017-11-10T18:32:29.715Z,98667
2017-11-10T18:34:37.628Z,98656
2017-11-10T18:36:44.912Z,98688
2017-11-10T18:38:53.221Z,98668
2017-11-10T18:41:02.207Z,98675
2017-11-10T18:43:09.295Z,98673
2017-11-10T18:45:17.967Z,98666
2017-11-10T18:47:26.172Z,98673
2017-11-10T18:49:34.597Z,98663
2017-11-10T18:51:42.068Z,98680
2017-11-10T18:53:48.137Z,98666
2017-11-10T18:55:56.728Z,98682
2017-11-10T18:58:05.289Z,98684
2017-11-10T19:00:17.930Z,98676
2017-11-10T19:02:25.029Z,98680
2017-11-10T19:04:30.880Z,98674
2017-11-10T19:06:39.528Z,98684
2017-11-10T19:08:50.380Z,98682
2017-11-10T19:11:01.854Z,98694
2017-11-10T19:13:14.555Z,98696
2017-11-10T19:15:23.735Z,98701
2017-11-10T19:17:36.216Z,98702
2017-11-10T19:19:48.370Z,98708
2017-11-10T19:21:54.869Z,98707
2017-11-10T19:24:05.704Z,98724
2017-11-10T19:26:19.088Z,98712
2017-11-10T19:28:27.886Z,98723
2017-11-10T19:30:33.979Z,98706
2017-11-10T19:32:43.577Z,98726
2017-11-10T19:34:49.571Z,98708
2017-11-10T19:37:05.111Z,98721
2017-11-10T19:39:22.495Z,98714
2017-11-10T19:41:29.661Z,98732
2017-11-10T19:43:37.568Z,98724
2017-11-10T19:45:46.999Z,98719
2017-11-10T19:48:12.523Z,98716
2017-11-10T19:50:21.167Z,98717
2017-11-10T19:52:28.616Z,98714
2017-11-10T19:54:34.968Z,98710
2017-11-10T19:56:48.414Z,98718
2017-11-10T19:58:58.520Z,98713
2017-11-10T20:01:07.291Z,98716
2017-11-10T20:03:17.416Z,98720
2017-11-10T20:05:23.730Z,98716
2017-11-10T20:07:29.562Z,98724
2017-11-10T20:09:37.111Z,98718
2017-11-10T20:11:44.937Z,98725
2017-11-10T20:13:52.783Z,98725
2017-11-10T20:16:01.906Z,98742
2017-11-10T20:18:12.819Z,98724
2017-11-10T20:20:21.855Z,98730
2017-11-10T20:22:29.982Z,98730
2017-11-10T20:24:37.069Z,98731
2017-11-10T20:27:01.964Z,98729
2017-11-10T20:29:13.786Z,98738
2017-11-10T20:31:28.679Z,98741
2017-11-10T20:36:21.181Z,98729
2017-11-10T20:38:30.670Z,98722
2017-11-10T20:40:40.553Z,98743
2017-11-10T20:42:51.489Z,98731
2017-11-10T20:44:59.486Z,98734
2017-11-10T20:47:19.575Z,98733
2017-11-10T20:49:26.568Z,98724
2017-11-10T20:51:40.241Z,98734
2017-11-10T20:53:50.590Z,98733
2017-11-10T20:56:20.785Z,98736
2017-11-10T20:58:31.274Z,98732
2017-11-10T21:00:45.797Z,98738
2017-11-10T21:02:58.470Z,98733
2017-11-10T21:05:08.860Z,98736
2017-11-10T21:07:18.241Z,98734
2017-11-10T21:09:24.685Z,98733
2017-11-10T21:11:32.928Z,98725
2017-11-10T21:13:53.402Z,98740
2017-11-10T21:16:03.197Z,98731
2017-11-10T21:18:10.522Z,98731
2017-11-10T21:20:28.799Z,98741
2017-11-10T21:22:38.032Z,98749
2017-11-10T21:24:47.209Z,98735
2017-11-10T21:27:01.498Z,98751
2017-11-10T21:29:17.352Z,98736
2017-11-10T21:31:29.190Z,98749
2017-11-10T21:33:36.903Z,98745
2017-11-10T21:38:46.537Z,98764
2017-11-10T21:40:55.246Z,98749
2017-11-10T21:43:10.687Z,98766
2017-11-10T21:45:20.045Z,98758
2017-11-10T21:48:01.235Z,98769
2017-11-10T21:50:25.917Z,98759
2017-11-10T21:52:46.136Z,98764
2017-11-10T21:54:56.483Z,98771
2017-11-10T21:57:07.886Z,98771
2017-11-10T21:59:19.304Z,98773
2017-11-10T22:01:30.969Z,98767
2017-11-10T22:03:49.147Z,98774
2017-11-10T22:05:56.457Z,98759
2017-11-10T22:08:20.666Z,98767
2017-11-10T22:10:31.702Z,98767
2017-11-10T22:12:38.699Z,98769
2017-11-10T22:14:50.279Z,98770
2017-11-10T22:17:00.256Z,98771
2017-11-10T22:19:09.845Z,98774
2017-11-10T22:21:18.620Z,98778
2017-11-10T22:23:25.003Z,98751
2017-11-10T22:25:33.069Z,98756
2017-11-10T22:30:39.650Z,98780
2017-11-10T22:32:59.254Z,98768
2017-11-10T22:35:08.532Z,98767
2017-11-10T22:37:19.876Z,98769
2017-11-10T22:39:25.964Z,98765
2017-11-10T22:41:33.163Z,98768
2017-11-10T22:43:39.178Z,98760
2017-11-10T22:45:47.200Z,98761
2017-11-10T22:47:53.918Z,98760
2017-11-10T22:50:01.645Z,98756
2017-11-10T22:52:08.915Z,98760
2017-11-10T22:54:19.116Z,98768
2017-11-10T22:56:26.222Z,98758
2017-11-10T22:58:32.558Z,98767
2017-11-10T23:00:38.666Z,98775
2017-11-10T23:02:49.651Z,98761
2017-11-10T23:04:56.456Z,98775
2017-11-10T23:07:05.032Z,98761
2017-11-10T23:09:14.799Z,98774
2017-11-10T23:11:34.208Z,98764
2017-11-10T23:13:40.540Z,98793
2017-11-10T23:15:48.079Z,98772
2017-11-10T23:18:02.273Z,98767
2017-11-10T23:20:10.293Z,98773
2017-11-10T23:22:19.337Z,98780
2017-11-10T23:24:25.092Z,98777
2017-11-10T23:26:31.193Z,98768
2017-11-10T23:28:40.072Z,98778
2017-11-10T23:30:48.051Z,98786
2017-11-10T23:32:55.755Z,98772
2017-11-10T23:35:05.185Z,98766
2017-11-10T23:37:14.561Z,98778
2017-11-10T23:39:20.554Z,98774
2017-11-10T23:41:26.317Z,98759
2017-11-10T23:43:32.161Z,98776
2017-11-10T23:45:38.501Z,98785
2017-11-10T23:47:45.265Z,98777
2017-11-10T23:49:51.391Z,98776
2017-11-10T23:52:03.100Z,98769
2017-11-10T23:54:09.692Z,98794
2017-11-10T23:56:17.718Z,98765
2017-11-10T23:58:23.833Z,98765
